sensor_id;sensor_type;location;lat;lon;timestamp;pressure;altitude;pressure_sealevel;temperature;humidity
24154;BME280;12312;53.362;-1.518;2023-06-14T00:01:40;99548.91;;;17.39;55.52
24154;BME280;12312;53.362;-1.518;2023-06-14T00:04:23;99550.66;;;17.21;58.47
24154;BME280;12312;53.362;-1.518;2023-06-14T00:07:09;99549.50;;;17.14;59.26
24154;BME280;12312;53.362;-1.518;2023-06-14T00:09:53;99554.31;;;17.20;59.95
24154;BME280;12312;53.362;-1.518;2023-06-14T00:12:38;99553.22;;;16.75;61.67
24154;BME280;12312;53.362;-1.518;2023-06-14T00:15:22;99547.56;;;16.97;60.68
24154;BME280;12312;53.362;-1.518;2023-06-14T00:18:07;99559.72;;;17.01;59.93
24154;BME280;12312;53.362;-1.518;2023-06-14T00:20:55;99564.69;;;16.96;59.52
24154;BME280;12312;53.362;-1.518;2023-06-14T00:23:39;99559.41;;;17.23;57.95
24154;BME280;12312;53.362;-1.518;2023-06-14T00:26:24;99553.78;;;16.88;61.14
24154;BME280;12312;53.362;-1.518;2023-06-14T00:29:09;99552.94;;;16.78;61.64
24154;BME280;12312;53.362;-1.518;2023-06-14T00:31:53;99559.47;;;16.66;62.49
24154;BME280;12312;53.362;-1.518;2023-06-14T00:34:37;99558.91;;;16.72;62.67
24154;BME280;12312;53.362;-1.518;2023-06-14T00:37:21;99553.78;;;16.88;60.70
24154;BME280;12312;53.362;-1.518;2023-06-14T00:40:06;99553.25;;;16.84;62.69
24154;BME280;12312;53.362;-1.518;2023-06-14T00:42:50;99551.94;;;16.79;61.89
24154;BME280;12312;53.362;-1.518;2023-06-14T00:45:34;99549.19;;;16.41;64.13
24154;BME280;12312;53.362;-1.518;2023-06-14T00:48:20;99544.88;;;16.68;63.22
24154;BME280;12312;53.362;-1.518;2023-06-14T00:51:03;99543.84;;;16.41;64.79
24154;BME280;12312;53.362;-1.518;2023-06-14T00:53:47;99549.69;;;16.55;65.21
24154;BME280;12312;53.362;-1.518;2023-06-14T00:56:31;99542.25;;;16.29;65.08
24154;BME280;12312;53.362;-1.518;2023-06-14T00:59:16;99547.50;;;16.40;66.66
24154;BME280;12312;53.362;-1.518;2023-06-14T01:02:00;99543.25;;;16.28;67.42
24154;BME280;12312;53.362;-1.518;2023-06-14T01:04:48;99534.78;;;16.32;67.71
24154;BME280;12312;53.362;-1.518;2023-06-14T01:13:43;99536.25;;;16.46;69.68
24154;BME280;12312;53.362;-1.518;2023-06-14T01:16:30;99540.28;;;16.31;70.85
24154;BME280;12312;53.362;-1.518;2023-06-14T01:19:15;99542.97;;;16.31;71.03
24154;BME280;12312;53.362;-1.518;2023-06-14T01:22:01;99544.19;;;16.08;73.78
24154;BME280;12312;53.362;-1.518;2023-06-14T01:24:45;99547.13;;;15.85;75.07
24154;BME280;12312;53.362;-1.518;2023-06-14T01:27:29;99542.69;;;16.15;75.66
24154;BME280;12312;53.362;-1.518;2023-06-14T01:30:17;99534.16;;;16.00;76.23
24154;BME280;12312;53.362;-1.518;2023-06-14T01:33:01;99540.09;;;16.03;76.54
24154;BME280;12312;53.362;-1.518;2023-06-14T01:35:51;99530.94;;;16.16;77.12
24154;BME280;12312;53.362;-1.518;2023-06-14T01:38:36;99536.16;;;16.08;77.37
24154;BME280;12312;53.362;-1.518;2023-06-14T01:41:21;99536.16;;;16.08;77.50
24154;BME280;12312;53.362;-1.518;2023-06-14T01:44:06;99534.00;;;15.92;78.51
24154;BME280;12312;53.362;-1.518;2023-06-14T01:46:51;99528.69;;;15.71;79.50
24154;BME280;12312;53.362;-1.518;2023-06-14T01:49:35;99539.88;;;15.76;80.54
24154;BME280;12312;53.362;-1.518;2023-06-14T01:52:19;99534.75;;;15.64;81.10
24154;BME280;12312;53.362;-1.518;2023-06-14T01:55:07;99538.88;;;15.77;81.04
24154;BME280;12312;53.362;-1.518;2023-06-14T01:57:52;99532.53;;;15.78;81.31
24154;BME280;12312;53.362;-1.518;2023-06-14T02:00:37;99532.38;;;15.70;80.93
24154;BME280;12312;53.362;-1.518;2023-06-14T02:03:21;99534.41;;;15.57;82.72
24154;BME280;12312;53.362;-1.518;2023-06-14T02:06:05;99525.41;;;15.58;82.62
24154;BME280;12312;53.362;-1.518;2023-06-14T02:08:49;99529.78;;;15.59;81.59
24154;BME280;12312;53.362;-1.518;2023-06-14T02:11:33;99529.88;;;15.48;81.84
24154;BME280;12312;53.362;-1.518;2023-06-14T02:14:17;99522.13;;;15.55;81.54
24154;BME280;12312;53.362;-1.518;2023-06-14T02:17:01;99524.41;;;15.59;81.15
24154;BME280;12312;53.362;-1.518;2023-06-14T02:19:45;99533.47;;;15.58;81.07
24154;BME280;12312;53.362;-1.518;2023-06-14T02:22:29;99531.47;;;15.60;80.54
24154;BME280;12312;53.362;-1.518;2023-06-14T02:25:13;99527.91;;;15.50;80.81
24154;BME280;12312;53.362;-1.518;2023-06-14T02:27:57;99536.06;;;15.28;79.76
24154;BME280;12312;53.362;-1.518;2023-06-14T02:30:41;99531.13;;;15.44;79.59
24154;BME280;12312;53.362;-1.518;2023-06-14T02:33:35;99522.63;;;15.39;79.38
24154;BME280;12312;53.362;-1.518;2023-06-14T02:36:39;99521.75;;;15.39;78.35
24154;BME280;12312;53.362;-1.518;2023-06-14T02:39:25;99527.34;;;15.26;79.21
24154;BME280;12312;53.362;-1.518;2023-06-14T02:42:09;99521.53;;;15.51;78.29
24154;BME280;12312;53.362;-1.518;2023-06-14T02:44:54;99515.22;;;15.32;78.61
24154;BME280;12312;53.362;-1.518;2023-06-14T02:47:39;99510.78;;;15.42;78.17
24154;BME280;12312;53.362;-1.518;2023-06-14T02:50:23;99508.47;;;15.37;78.44
24154;BME280;12312;53.362;-1.518;2023-06-14T02:53:08;99514.09;;;15.34;81.11
24154;BME280;12312;53.362;-1.518;2023-06-14T02:55:52;99516.88;;;15.23;79.14
24154;BME280;12312;53.362;-1.518;2023-06-14T02:58:37;99515.81;;;15.35;78.37
24154;BME280;12312;53.362;-1.518;2023-06-14T03:01:21;99517.84;;;15.43;78.54
24154;BME280;12312;53.362;-1.518;2023-06-14T03:04:05;99512.31;;;15.14;79.24
24154;BME280;12312;53.362;-1.518;2023-06-14T03:06:49;99516.91;;;14.82;79.46
24154;BME280;12312;53.362;-1.518;2023-06-14T03:09:34;99522.84;;;15.06;79.58
24154;BME280;12312;53.362;-1.518;2023-06-14T03:12:18;99529.03;;;14.86;80.25
24154;BME280;12312;53.362;-1.518;2023-06-14T03:15:02;99519.06;;;14.88;80.66
24154;BME280;12312;53.362;-1.518;2023-06-14T03:17:47;99525.63;;;14.84;81.49
24154;BME280;12312;53.362;-1.518;2023-06-14T03:20:33;99522.47;;;14.90;82.44
24154;BME280;12312;53.362;-1.518;2023-06-14T03:23:16;99529.75;;;14.68;84.17
24154;BME280;12312;53.362;-1.518;2023-06-14T03:26:01;99533.19;;;14.59;85.32
24154;BME280;12312;53.362;-1.518;2023-06-14T03:28:45;99531.84;;;14.64;85.88
24154;BME280;12312;53.362;-1.518;2023-06-14T03:31:30;99523.59;;;14.56;87.35
24154;BME280;12312;53.362;-1.518;2023-06-14T03:34:17;99535.09;;;14.36;89.14
24154;BME280;12312;53.362;-1.518;2023-06-14T03:37:01;99531.25;;;14.29;90.68
24154;BME280;12312;53.362;-1.518;2023-06-14T03:39:45;99529.53;;;14.28;91.29
24154;BME280;12312;53.362;-1.518;2023-06-14T03:42:31;99528.31;;;14.32;91.70
24154;BME280;12312;53.362;-1.518;2023-06-14T03:45:15;99533.66;;;14.32;91.95
24154;BME280;12312;53.362;-1.518;2023-06-14T03:47:59;99538.53;;;14.16;92.76
24154;BME280;12312;53.362;-1.518;2023-06-14T03:50:44;99532.09;;;14.18;92.84
24154;BME280;12312;53.362;-1.518;2023-06-14T03:53:28;99550.00;;;14.29;92.47
24154;BME280;12312;53.362;-1.518;2023-06-14T03:56:13;99543.66;;;14.30;92.62
24154;BME280;12312;53.362;-1.518;2023-06-14T03:58:57;99536.13;;;14.13;93.60
24154;BME280;12312;53.362;-1.518;2023-06-14T04:01:41;99532.34;;;14.15;93.47
24154;BME280;12312;53.362;-1.518;2023-06-14T04:04:28;99537.34;;;14.20;93.66
24154;BME280;12312;53.362;-1.518;2023-06-14T04:07:14;99535.09;;;14.36;93.52
24154;BME280;12312;53.362;-1.518;2023-06-14T04:09:58;99521.94;;;14.44;92.52
24154;BME280;12312;53.362;-1.518;2023-06-14T04:12:42;99531.97;;;14.20;94.24
24154;BME280;12312;53.362;-1.518;2023-06-14T04:15:26;99527.25;;;14.12;94.00
24154;BME280;12312;53.362;-1.518;2023-06-14T04:18:13;99523.09;;;14.19;94.14
24154;BME280;12312;53.362;-1.518;2023-06-14T04:20:57;99526.13;;;14.15;94.12
24154;BME280;12312;53.362;-1.518;2023-06-14T04:23:41;99520.91;;;14.24;93.99
24154;BME280;12312;53.362;-1.518;2023-06-14T04:26:27;99519.81;;;14.27;93.94
24154;BME280;12312;53.362;-1.518;2023-06-14T04:29:14;99525.63;;;14.32;94.06
24154;BME280;12312;53.362;-1.518;2023-06-14T04:31:59;99534.84;;;14.39;94.00
24154;BME280;12312;53.362;-1.518;2023-06-14T04:34:44;99528.09;;;14.24;94.29
24154;BME280;12312;53.362;-1.518;2023-06-14T04:37:28;99534.03;;;14.16;95.05
24154;BME280;12312;53.362;-1.518;2023-06-14T04:40:14;99533.19;;;14.27;94.81
24154;BME280;12312;53.362;-1.518;2023-06-14T04:42:59;99529.44;;;14.18;95.43
24154;BME280;12312;53.362;-1.518;2023-06-14T04:45:42;99530.00;;;14.33;95.46
24154;BME280;12312;53.362;-1.518;2023-06-14T04:48:30;99530.25;;;14.30;95.46
24154;BME280;12312;53.362;-1.518;2023-06-14T04:51:15;99531.34;;;14.39;95.23
24154;BME280;12312;53.362;-1.518;2023-06-14T04:53:59;99533.78;;;14.19;96.03
24154;BME280;12312;53.362;-1.518;2023-06-14T04:56:43;99531.69;;;14.34;95.27
24154;BME280;12312;53.362;-1.518;2023-06-14T04:59:27;99532.66;;;14.44;95.83
24154;BME280;12312;53.362;-1.518;2023-06-14T05:02:11;99534.81;;;14.50;95.13
24154;BME280;12312;53.362;-1.518;2023-06-14T05:04:55;99533.72;;;14.53;95.36
24154;BME280;12312;53.362;-1.518;2023-06-14T05:07:40;99532.19;;;14.39;95.96
24154;BME280;12312;53.362;-1.518;2023-06-14T05:10:24;99530.00;;;14.65;96.70
24154;BME280;12312;53.362;-1.518;2023-06-14T05:13:08;99533.28;;;14.68;96.06
24154;BME280;12312;53.362;-1.518;2023-06-14T05:15:54;99526.75;;;14.61;96.38
24154;BME280;12312;53.362;-1.518;2023-06-14T05:18:41;99542.22;;;14.78;96.35
24154;BME280;12312;53.362;-1.518;2023-06-14T05:21:25;99534.44;;;14.55;96.84
24154;BME280;12312;53.362;-1.518;2023-06-14T05:24:09;99537.50;;;14.50;97.47
24154;BME280;12312;53.362;-1.518;2023-06-14T05:26:55;99538.94;;;14.54;96.77
24154;BME280;12312;53.362;-1.518;2023-06-14T05:29:39;99535.81;;;14.49;98.29
24154;BME280;12312;53.362;-1.518;2023-06-14T05:32:24;99538.28;;;14.62;97.59
24154;BME280;12312;53.362;-1.518;2023-06-14T05:35:08;99537.66;;;14.69;97.07
24154;BME280;12312;53.362;-1.518;2023-06-14T05:37:52;99540.28;;;14.80;96.93
24154;BME280;12312;53.362;-1.518;2023-06-14T05:40:37;99539.88;;;14.85;97.02
24154;BME280;12312;53.362;-1.518;2023-06-14T05:43:21;99554.28;;;15.04;97.29
24154;BME280;12312;53.362;-1.518;2023-06-14T05:46:05;99550.88;;;14.82;96.79
24154;BME280;12312;53.362;-1.518;2023-06-14T05:48:50;99543.81;;;15.01;97.07
24154;BME280;12312;53.362;-1.518;2023-06-14T05:51:34;99552.16;;;14.87;97.40
24154;BME280;12312;53.362;-1.518;2023-06-14T05:54:19;99551.69;;;14.93;98.69
24154;BME280;12312;53.362;-1.518;2023-06-14T05:57:03;99546.09;;;14.85;98.73
24154;BME280;12312;53.362;-1.518;2023-06-14T05:59:48;99547.75;;;14.97;98.39
24154;BME280;12312;53.362;-1.518;2023-06-14T06:02:32;99553.63;;;14.91;98.55
24154;BME280;12312;53.362;-1.518;2023-06-14T06:05:16;99552.50;;;14.94;99.37
24154;BME280;12312;53.362;-1.518;2023-06-14T06:08:00;99566.16;;;14.91;99.63
24154;BME280;12312;53.362;-1.518;2023-06-14T06:10:44;99563.97;;;14.96;99.91
24154;BME280;12312;53.362;-1.518;2023-06-14T06:13:28;99560.56;;;15.14;99.19
24154;BME280;12312;53.362;-1.518;2023-06-14T06:16:12;99559.25;;;15.29;98.24
24154;BME280;12312;53.362;-1.518;2023-06-14T06:18:56;99553.78;;;15.61;97.62
24154;BME280;12312;53.362;-1.518;2023-06-14T06:21:40;99544.47;;;15.55;97.71
24154;BME280;12312;53.362;-1.518;2023-06-14T06:24:24;99555.22;;;15.65;97.06
24154;BME280;12312;53.362;-1.518;2023-06-14T06:27:09;99554.66;;;15.71;96.50
24154;BME280;12312;53.362;-1.518;2023-06-14T06:29:54;99554.13;;;15.67;96.72
24154;BME280;12312;53.362;-1.518;2023-06-14T06:32:38;99564.09;;;15.95;97.26
24154;BME280;12312;53.362;-1.518;2023-06-14T06:35:22;99563.75;;;16.19;95.26
24154;BME280;12312;53.362;-1.518;2023-06-14T06:38:07;99563.88;;;16.27;94.33
24154;BME280;12312;53.362;-1.518;2023-06-14T06:40:52;99569.81;;;16.12;94.08
24154;BME280;12312;53.362;-1.518;2023-06-14T06:43:38;99570.06;;;15.99;95.50
24154;BME280;12312;53.362;-1.518;2023-06-14T06:46:22;99571.63;;;16.51;96.45
24154;BME280;12312;53.362;-1.518;2023-06-14T06:49:07;99569.59;;;16.43;95.03
24154;BME280;12312;53.362;-1.518;2023-06-14T06:52:02;99570.13;;;16.28;95.43
24154;BME280;12312;53.362;-1.518;2023-06-14T06:54:48;99573.03;;;16.55;94.86
24154;BME280;12312;53.362;-1.518;2023-06-14T06:57:32;99566.47;;;16.38;93.92
24154;BME280;12312;53.362;-1.518;2023-06-14T07:00:17;99572.16;;;16.45;94.59
24154;BME280;12312;53.362;-1.518;2023-06-14T07:03:01;99575.31;;;16.69;92.96
24154;BME280;12312;53.362;-1.518;2023-06-14T07:05:47;99577.78;;;16.42;93.30
24154;BME280;12312;53.362;-1.518;2023-06-14T07:08:31;99577.84;;;16.70;93.85
24154;BME280;12312;53.362;-1.518;2023-06-14T07:11:15;99577.84;;;16.51;91.92
24154;BME280;12312;53.362;-1.518;2023-06-14T07:13:59;99577.28;;;16.67;94.63
24154;BME280;12312;53.362;-1.518;2023-06-14T07:16:44;99575.88;;;16.63;94.06
24154;BME280;12312;53.362;-1.518;2023-06-14T07:19:28;99581.13;;;16.74;96.80
24154;BME280;12312;53.362;-1.518;2023-06-14T07:22:12;99588.06;;;16.86;92.15
24154;BME280;12312;53.362;-1.518;2023-06-14T07:24:56;99577.88;;;16.80;91.61
24154;BME280;12312;53.362;-1.518;2023-06-14T07:27:41;99583.78;;;16.83;92.40
24154;BME280;12312;53.362;-1.518;2023-06-14T07:30:25;99577.56;;;16.83;92.12
24154;BME280;12312;53.362;-1.518;2023-06-14T07:33:11;99589.47;;;16.99;92.14
24154;BME280;12312;53.362;-1.518;2023-06-14T07:35:55;99583.38;;;17.07;90.70
24154;BME280;12312;53.362;-1.518;2023-06-14T07:38:40;99587.44;;;17.49;90.55
24154;BME280;12312;53.362;-1.518;2023-06-14T07:41:24;99592.53;;;17.33;90.59
24154;BME280;12312;53.362;-1.518;2023-06-14T07:44:09;99582.88;;;17.40;90.47
24154;BME280;12312;53.362;-1.518;2023-06-14T07:46:54;99594.94;;;17.36;89.90
24154;BME280;12312;53.362;-1.518;2023-06-14T07:49:42;99582.28;;;17.65;90.30
24154;BME280;12312;53.362;-1.518;2023-06-14T07:52:26;99581.94;;;17.77;89.72
24154;BME280;12312;53.362;-1.518;2023-06-14T07:55:11;99579.63;;;17.92;88.79
24154;BME280;12312;53.362;-1.518;2023-06-14T07:57:55;99578.81;;;17.82;87.55
24154;BME280;12312;53.362;-1.518;2023-06-14T08:00:39;99579.91;;;17.99;88.34
24154;BME280;12312;53.362;-1.518;2023-06-14T08:03:23;99581.53;;;18.09;87.24
24154;BME280;12312;53.362;-1.518;2023-06-14T08:06:08;99580.56;;;18.28;85.19
24154;BME280;12312;53.362;-1.518;2023-06-14T08:08:52;99581.13;;;18.31;87.09
24154;BME280;12312;53.362;-1.518;2023-06-14T08:11:36;99584.63;;;18.14;86.41
24154;BME280;12312;53.362;-1.518;2023-06-14T08:14:21;99590.53;;;18.27;87.09
24154;BME280;12312;53.362;-1.518;2023-06-14T08:17:05;99591.34;;;18.28;87.09
24154;BME280;12312;53.362;-1.518;2023-06-14T08:19:48;99585.50;;;18.32;87.37
24154;BME280;12312;53.362;-1.518;2023-06-14T08:22:33;99589.41;;;18.47;85.51
24154;BME280;12312;53.362;-1.518;2023-06-14T08:25:18;99582.84;;;18.59;84.97
24154;BME280;12312;53.362;-1.518;2023-06-14T08:28:03;99584.75;;;18.84;84.95
24154;BME280;12312;53.362;-1.518;2023-06-14T08:30:47;99578.44;;;18.93;83.33
24154;BME280;12312;53.362;-1.518;2023-06-14T08:33:31;99580.13;;;18.94;83.29
24154;BME280;12312;53.362;-1.518;2023-06-14T08:36:18;99574.34;;;19.07;82.57
24154;BME280;12312;53.362;-1.518;2023-06-14T08:39:02;99584.94;;;19.00;83.13
24154;BME280;12312;53.362;-1.518;2023-06-14T08:41:47;99576.53;;;19.03;83.74
24154;BME280;12312;53.362;-1.518;2023-06-14T08:44:34;99575.19;;;19.07;82.58
24154;BME280;12312;53.362;-1.518;2023-06-14T08:47:18;99580.28;;;19.28;81.45
24154;BME280;12312;53.362;-1.518;2023-06-14T08:50:05;99582.50;;;19.32;81.62
24154;BME280;12312;53.362;-1.518;2023-06-14T08:52:53;99574.28;;;19.60;82.92
24154;BME280;12312;53.362;-1.518;2023-06-14T08:55:38;99577.31;;;19.65;82.28
24154;BME280;12312;53.362;-1.518;2023-06-14T08:58:24;99573.31;;;19.69;81.07
24154;BME280;12312;53.362;-1.518;2023-06-14T09:01:08;99579.03;;;19.66;80.72
24154;BME280;12312;53.362;-1.518;2023-06-14T09:03:53;99575.06;;;19.78;79.46
24154;BME280;12312;53.362;-1.518;2023-06-14T09:06:39;99571.41;;;19.95;77.98
24154;BME280;12312;53.362;-1.518;2023-06-14T09:09:24;99577.56;;;20.05;77.71
24154;BME280;12312;53.362;-1.518;2023-06-14T09:12:13;99577.47;;;20.14;79.20
24154;BME280;12312;53.362;-1.518;2023-06-14T09:14:57;99575.34;;;20.42;77.29
24154;BME280;12312;53.362;-1.518;2023-06-14T09:17:42;99577.56;;;20.46;76.18
24154;BME280;12312;53.362;-1.518;2023-06-14T09:20:26;99570.34;;;20.55;76.39
24154;BME280;12312;53.362;-1.518;2023-06-14T09:23:10;99573.06;;;20.63;75.43
24154;BME280;12312;53.362;-1.518;2023-06-14T09:25:55;99567.00;;;20.85;75.07
24154;BME280;12312;53.362;-1.518;2023-06-14T09:28:48;99574.22;;;20.60;75.38
24154;BME280;12312;53.362;-1.518;2023-06-14T09:31:35;99573.31;;;20.28;75.51
24154;BME280;12312;53.362;-1.518;2023-06-14T09:34:21;99576.75;;;20.54;75.41
24154;BME280;12312;53.362;-1.518;2023-06-14T09:37:07;99574.75;;;20.80;75.51
24154;BME280;12312;53.362;-1.518;2023-06-14T09:39:51;99571.91;;;20.73;74.78
24154;BME280;12312;53.362;-1.518;2023-06-14T09:42:35;99584.81;;;20.95;72.78
24154;BME280;12312;53.362;-1.518;2023-06-14T09:45:20;99585.66;;;21.20;71.46
24154;BME280;12312;53.362;-1.518;2023-06-14T09:48:07;99591.88;;;21.53;71.13
24154;BME280;12312;53.362;-1.518;2023-06-14T09:50:55;99573.75;;;21.85;68.13
24154;BME280;12312;53.362;-1.518;2023-06-14T09:53:42;99578.75;;;22.04;66.65
24154;BME280;12312;53.362;-1.518;2023-06-14T09:56:29;99579.44;;;22.06;65.01
24154;BME280;12312;53.362;-1.518;2023-06-14T09:59:14;99578.72;;;22.20;63.53
24154;BME280;12312;53.362;-1.518;2023-06-14T10:02:06;99582.91;;;21.84;62.29
24154;BME280;12312;53.362;-1.518;2023-06-14T10:05:02;99585.56;;;21.92;63.49
24154;BME280;12312;53.362;-1.518;2023-06-14T10:10:31;99574.00;;;22.14;58.82
24154;BME280;12312;53.362;-1.518;2023-06-14T10:13:16;99586.38;;;22.47;59.30
24154;BME280;12312;53.362;-1.518;2023-06-14T10:16:16;99593.66;;;22.47;57.42
24154;BME280;12312;53.362;-1.518;2023-06-14T10:19:19;99586.06;;;22.50;55.33
24154;BME280;12312;53.362;-1.518;2023-06-14T10:22:19;99578.03;;;22.65;58.81
24154;BME280;12312;53.362;-1.518;2023-06-14T10:25:07;99572.25;;;22.91;54.74
24154;BME280;12312;53.362;-1.518;2023-06-14T10:28:23;99568.91;;;22.80;54.66
24154;BME280;12312;53.362;-1.518;2023-06-14T10:31:11;99567.03;;;23.04;53.88
24154;BME280;12312;53.362;-1.518;2023-06-14T10:33:57;99574.00;;;23.29;53.36
24154;BME280;12312;53.362;-1.518;2023-06-14T10:36:42;99572.38;;;23.20;52.10
24154;BME280;12312;53.362;-1.518;2023-06-14T10:39:27;99571.69;;;23.18;52.24
24154;BME280;12312;53.362;-1.518;2023-06-14T10:42:12;99573.06;;;23.59;50.36
24154;BME280;12312;53.362;-1.518;2023-06-14T10:44:57;99570.25;;;23.07;51.33
24154;BME280;12312;53.362;-1.518;2023-06-14T10:47:43;99574.53;;;23.02;49.24
24154;BME280;12312;53.362;-1.518;2023-06-14T10:50:27;99574.91;;;23.21;49.85
24154;BME280;12312;53.362;-1.518;2023-06-14T10:53:24;99569.84;;;23.18;49.14
24154;BME280;12312;53.362;-1.518;2023-06-14T10:56:08;99567.91;;;23.27;47.54
24154;BME280;12312;53.362;-1.518;2023-06-14T10:58:56;99568.91;;;23.63;49.27
24154;BME280;12312;53.362;-1.518;2023-06-14T11:04:50;99577.44;;;23.45;45.94
24154;BME280;12312;53.362;-1.518;2023-06-14T11:10:43;99574.72;;;23.23;46.46
24154;BME280;12312;53.362;-1.518;2023-06-14T11:13:29;99565.91;;;23.58;45.82
24154;BME280;12312;53.362;-1.518;2023-06-14T11:16:15;99563.88;;;23.89;46.62
24154;BME280;12312;53.362;-1.518;2023-06-14T11:19:00;99565.34;;;24.14;45.55
24154;BME280;12312;53.362;-1.518;2023-06-14T11:21:47;99552.47;;;23.79;45.32
24154;BME280;12312;53.362;-1.518;2023-06-14T11:24:32;99565.56;;;23.90;45.77
24154;BME280;12312;53.362;-1.518;2023-06-14T11:27:16;99553.28;;;23.79;44.53
24154;BME280;12312;53.362;-1.518;2023-06-14T11:30:00;99551.03;;;23.83;46.01
24154;BME280;12312;53.362;-1.518;2023-06-14T11:32:48;99553.94;;;23.81;45.74
24154;BME280;12312;53.362;-1.518;2023-06-14T11:35:34;99560.34;;;24.17;45.87
24154;BME280;12312;53.362;-1.518;2023-06-14T11:38:18;99549.44;;;24.82;45.69
24154;BME280;12312;53.362;-1.518;2023-06-14T11:41:11;99562.53;;;25.56;43.22
24154;BME280;12312;53.362;-1.518;2023-06-14T11:43:55;99556.19;;;26.52;40.45
24154;BME280;12312;53.362;-1.518;2023-06-14T11:46:39;99557.81;;;27.00;38.99
24154;BME280;12312;53.362;-1.518;2023-06-14T11:49:23;99559.53;;;27.14;38.18
24154;BME280;12312;53.362;-1.518;2023-06-14T11:52:08;99555.72;;;26.89;37.46
24154;BME280;12312;53.362;-1.518;2023-06-14T11:54:53;99553.47;;;27.51;37.05
24154;BME280;12312;53.362;-1.518;2023-06-14T11:57:37;99553.25;;;27.72;37.57
24154;BME280;12312;53.362;-1.518;2023-06-14T12:00:25;99540.56;;;28.10;36.77
24154;BME280;12312;53.362;-1.518;2023-06-14T12:03:11;99556.47;;;28.39;37.16
24154;BME280;12312;53.362;-1.518;2023-06-14T12:06:07;99548.19;;;27.95;36.66
24154;BME280;12312;53.362;-1.518;2023-06-14T12:08:55;99546.09;;;27.64;36.59
24154;BME280;12312;53.362;-1.518;2023-06-14T12:11:39;99549.75;;;28.35;35.60
24154;BME280;12312;53.362;-1.518;2023-06-14T12:14:28;99540.59;;;27.12;37.19
24154;BME280;12312;53.362;-1.518;2023-06-14T12:17:16;99550.25;;;28.13;35.08
24154;BME280;12312;53.362;-1.518;2023-06-14T12:20:19;99548.69;;;28.36;35.02
24154;BME280;12312;53.362;-1.518;2023-06-14T12:23:05;99538.06;;;28.59;35.08
24154;BME280;12312;53.362;-1.518;2023-06-14T12:25:50;99544.25;;;28.48;35.20
24154;BME280;12312;53.362;-1.518;2023-06-14T12:28:35;99553.78;;;28.83;33.98
24154;BME280;12312;53.362;-1.518;2023-06-14T12:31:19;99541.75;;;28.84;33.56
24154;BME280;12312;53.362;-1.518;2023-06-14T12:34:03;99546.84;;;28.30;33.77
24154;BME280;12312;53.362;-1.518;2023-06-14T12:36:47;99554.66;;;28.77;31.93
24154;BME280;12312;53.362;-1.518;2023-06-14T12:39:32;99545.28;;;28.91;31.99
24154;BME280;12312;53.362;-1.518;2023-06-14T12:42:16;99556.88;;;29.24;31.93
24154;BME280;12312;53.362;-1.518;2023-06-14T12:45:01;99537.81;;;29.36;31.77
24154;BME280;12312;53.362;-1.518;2023-06-14T12:47:49;99546.75;;;29.25;32.47
24154;BME280;12312;53.362;-1.518;2023-06-14T12:50:35;99547.47;;;28.76;32.37
24154;BME280;12312;53.362;-1.518;2023-06-14T12:53:19;99554.06;;;28.62;32.35
24154;BME280;12312;53.362;-1.518;2023-06-14T12:56:04;99559.03;;;29.22;31.15
24154;BME280;12312;53.362;-1.518;2023-06-14T12:58:48;99563.53;;;29.91;31.01
24154;BME280;12312;53.362;-1.518;2023-06-14T13:01:33;99555.75;;;29.88;31.20
24154;BME280;12312;53.362;-1.518;2023-06-14T13:04:17;99567.19;;;30.03;30.77
24154;BME280;12312;53.362;-1.518;2023-06-14T13:07:04;99568.91;;;29.55;30.02
24154;BME280;12312;53.362;-1.518;2023-06-14T13:09:53;99556.28;;;29.22;30.70
24154;BME280;12312;53.362;-1.518;2023-06-14T13:12:37;99561.41;;;30.65;29.28
24154;BME280;12312;53.362;-1.518;2023-06-14T13:15:21;99554.38;;;30.87;28.12
24154;BME280;12312;53.362;-1.518;2023-06-14T13:18:05;99554.53;;;30.74;29.98
24154;BME280;12312;53.362;-1.518;2023-06-14T13:20:49;99550.97;;;31.33;27.41
24154;BME280;12312;53.362;-1.518;2023-06-14T13:23:33;99545.84;;;30.59;28.96
24154;BME280;12312;53.362;-1.518;2023-06-14T13:26:17;99546.53;;;30.18;30.17
24154;BME280;12312;53.362;-1.518;2023-06-14T13:29:02;99549.22;;;30.25;28.58
24154;BME280;12312;53.362;-1.518;2023-06-14T13:31:46;99547.69;;;30.47;28.33
24154;BME280;12312;53.362;-1.518;2023-06-14T13:34:30;99544.50;;;30.32;28.85
24154;BME280;12312;53.362;-1.518;2023-06-14T13:37:14;99555.88;;;30.35;28.90
24154;BME280;12312;53.362;-1.518;2023-06-14T13:39:58;99546.50;;;29.58;30.32
24154;BME280;12312;53.362;-1.518;2023-06-14T13:42:43;99548.13;;;30.08;27.84
24154;BME280;12312;53.362;-1.518;2023-06-14T13:45:27;99549.97;;;29.96;28.45
24154;BME280;12312;53.362;-1.518;2023-06-14T13:48:11;99546.16;;;29.48;29.31
24154;BME280;12312;53.362;-1.518;2023-06-14T13:50:56;99548.44;;;30.18;27.83
24154;BME280;12312;53.362;-1.518;2023-06-14T13:53:41;99552.69;;;29.22;29.34
24154;BME280;12312;53.362;-1.518;2023-06-14T13:56:25;99544.06;;;29.43;29.18
24154;BME280;12312;53.362;-1.518;2023-06-14T13:59:09;99549.72;;;28.42;31.25
24154;BME280;12312;53.362;-1.518;2023-06-14T14:01:53;99544.78;;;27.15;32.89
24154;BME280;12312;53.362;-1.518;2023-06-14T14:04:37;99555.25;;;26.85;34.00
24154;BME280;12312;53.362;-1.518;2023-06-14T14:07:22;99540.84;;;26.03;35.74
24154;BME280;12312;53.362;-1.518;2023-06-14T14:10:06;99543.56;;;26.03;37.22
24154;BME280;12312;53.362;-1.518;2023-06-14T14:12:51;99536.69;;;25.31;37.51
24154;BME280;12312;53.362;-1.518;2023-06-14T14:15:36;99556.47;;;25.33;38.21
24154;BME280;12312;53.362;-1.518;2023-06-14T14:18:20;99562.16;;;25.17;38.42
24154;BME280;12312;53.362;-1.518;2023-06-14T14:21:06;99548.78;;;25.22;37.61
24154;BME280;12312;53.362;-1.518;2023-06-14T14:23:50;99555.38;;;25.55;38.15
24154;BME280;12312;53.362;-1.518;2023-06-14T14:26:35;99549.03;;;25.48;39.08
24154;BME280;12312;53.362;-1.518;2023-06-14T14:29:19;99551.75;;;25.27;39.11
24154;BME280;12312;53.362;-1.518;2023-06-14T14:32:04;99545.41;;;24.78;39.42
24154;BME280;12312;53.362;-1.518;2023-06-14T14:34:48;99542.94;;;25.25;38.83
24154;BME280;12312;53.362;-1.518;2023-06-14T14:37:32;99553.84;;;25.25;38.14
24154;BME280;12312;53.362;-1.518;2023-06-14T14:40:16;99549.03;;;25.27;39.40